Trois-Rivieres, Canada
Current Conditions -  °F | °C
As of 7:00 AM on Tuesday 27 Jan 2015 (Local Time) from CYRQ Reporting Station
Overcast Overcast  
Wind Chill: -17°   Ceiling: 21000
Heat Index:   Visibility: 9mi
Dew Point: -8°   Wind: 14mph
Humidity: 66%   Direction: 10°N
Pressure: 30.16"   Gusts: NA
Location:  46.34°N, 72.55°W
Report Text: CYRQ 271200Z AUTO 01012KT 9SM FEW022 OVC210 M17/M22 A3016 RMK SLP219
Loading
Personal Weather Stations






























Interactive Weather Map New forecast layout! Learn more

10-Day Weather Forecast

Advertisements
Track Severe Weather on mobile